Time;durP1;ratioP1;P1;durP2;ratioP2;P2;SDS_P1;SDS_P2;PMS_P1;PMS_P2;Temp;Humidity;BMP_temperature;BMP_pressure;BME280_temperature;BME280_humidity;BME280_pressure;Samples;Min_cycle;Max_cycle;Signal;HPM_P1;HPM_P2
2021/12/24 00:00:11;;;;;;;18.07;10.30;;;;;;;-13.53;69.51;100626.94;1756544;81;21483;-65
2021/12/24 00:02:38;;;;;;;19.95;10.15;;;;;;;-13.47;69.64;100627.08;1755721;81;21506;-66
2021/12/24 00:05:06;;;;;;;21.90;10.08;;;;;;;-13.39;69.74;100617.09;1764865;81;21815;-65
2021/12/24 00:07:35;;;;;;;18.05;9.90;;;;;;;-13.33;69.75;100604.49;1769984;81;21082;-65
2021/12/24 00:10:01;;;;;;;18.50;10.05;;;;;;;-13.27;69.70;100610.13;1770387;81;21011;-65
2021/12/24 00:12:31;;;;;;;18.17;9.40;;;;;;;-13.24;69.77;100605.09;1755473;80;20996;-65
2021/12/24 00:15:01;;;;;;;18.30;9.78;;;;;;;-13.22;69.79;100594.13;1756453;81;20960;-67
2021/12/24 00:17:29;;;;;;;16.65;9.88;;;;;;;-13.17;69.79;100594.20;1747980;81;21855;-66
2021/12/24 00:20:17;;;;;;;13.93;8.05;;;;;;;-13.13;69.76;100590.88;1734224;81;20945;-66
2021/12/24 00:36:19;;;;;;;16.75;8.90;;;;;;;-13.03;69.80;100568.62;1771054;80;21470;-65
2021/12/24 00:38:45;;;;;;;17.73;9.88;;;;;;;-13.00;69.90;100559.37;1754733;81;21430;-64
2021/12/24 00:41:13;;;;;;;17.77;9.68;;;;;;;-12.96;69.92;100561.97;1727064;81;21016;-65
2021/12/24 00:43:40;;;;;;;15.90;7.45;;;;;;;-12.92;70.00;100555.72;1750884;81;21852;-64
2021/12/24 00:46:06;;;;;;;17.48;9.13;;;;;;;-12.88;69.93;100549.84;1726588;83;21439;-65
2021/12/24 00:48:34;;;;;;;15.43;8.80;;;;;;;-12.86;69.88;100556.22;1754967;81;20941;-64
2021/12/24 00:56:10;;;;;;;15.93;8.15;;;;;;;-12.83;69.85;100538.08;1726586;83;21873;-66
2021/12/24 00:58:38;;;;;;;13.88;6.75;;;;;;;-12.83;69.83;100524.09;1768208;81;20936;-66
2021/12/24 01:01:05;;;;;;;16.20;8.85;;;;;;;-12.82;69.84;100528.34;1770196;81;20991;-66
2021/12/24 01:03:32;;;;;;;15.08;7.55;;;;;;;-12.81;69.80;100527.93;1770014;81;21462;-66
2021/12/24 01:05:59;;;;;;;17.87;8.73;;;;;;;-12.80;69.83;100522.86;1759270;81;21061;-66
2021/12/24 01:08:27;;;;;;;19.77;8.53;;;;;;;-12.78;69.80;100521.20;1790383;80;21395;-67
2021/12/24 01:10:58;;;;;;;15.78;8.30;;;;;;;-12.78;69.78;100516.53;1789303;80;21388;-65
2021/12/24 01:13:25;;;;;;;14.85;7.15;;;;;;;-12.76;69.79;100512.31;1763469;80;20946;-66
2021/12/24 01:16:01;;;;;;;12.82;6.58;;;;;;;-12.73;69.82;100507.30;1756834;81;20992;-67
2021/12/24 01:21:15;;;;;;;14.38;7.45;;;;;;;-12.71;69.75;100491.64;1758927;81;21889;-65
2021/12/24 01:23:49;;;;;;;14.47;7.90;;;;;;;-12.72;69.73;100476.80;1728215;81;21020;-65
2021/12/24 01:26:11;;;;;;;16.60;8.60;;;;;;;-12.71;69.69;100467.48;1756738;81;20964;-65
2021/12/24 01:45:27;;;;;;;13.45;7.25;;;;;;;-12.60;69.84;100430.76;1753438;81;20960;-66
2021/12/24 01:47:59;;;;;;;11.80;6.92;;;;;;;-12.58;69.86;100433.76;1785271;80;20925;-66
2021/12/24 01:50:27;;;;;;;12.70;6.67;;;;;;;-12.55;69.94;100431.25;1784094;80;20952;-66
2021/12/24 01:52:56;;;;;;;11.57;7.22;;;;;;;-12.54;69.94;100420.69;1763197;80;20975;-64
2021/12/24 01:55:23;;;;;;;10.88;6.20;;;;;;;-12.50;69.91;100417.34;1727385;82;20957;-63
2021/12/24 01:57:50;;;;;;;11.45;7.03;;;;;;;-12.49;69.86;100410.14;1763341;81;21024;-65
2021/12/24 02:00:22;;;;;;;10.45;6.33;;;;;;;-12.48;69.84;100411.84;1761693;80;21784;-66
2021/12/24 02:02:49;;;;;;;14.78;7.25;;;;;;;-12.46;69.90;100407.21;1787084;80;21126;-65
2021/12/24 02:05:17;;;;;;;13.75;7.55;;;;;;;-12.45;69.88;100392.41;1791780;79;20960;-66
2021/12/24 02:07:43;;;;;;;13.08;7.37;;;;;;;-12.44;69.83;100384.36;1793837;80;20964;-66
2021/12/24 02:10:12;;;;;;;14.07;7.70;;;;;;;-12.43;69.89;100375.88;1793959;80;21043;-67
2021/12/24 02:12:39;;;;;;;14.83;7.17;;;;;;;-12.42;69.85;100368.27;1793991;80;22378;-66
2021/12/24 02:15:13;;;;;;;14.65;6.42;;;;;;;-12.41;69.93;100355.13;1788609;80;21364;-67
2021/12/24 02:28:43;;;;;;;12.75;7.08;;;;;;;-12.34;69.92;100325.11;1750921;81;20976;-65
2021/12/24 02:31:17;;;;;;;11.63;7.33;;;;;;;-12.32;69.91;100327.67;1755562;81;21056;-65
2021/12/24 02:33:44;;;;;;;12.95;7.25;;;;;;;-12.31;69.96;100326.41;1743810;81;21004;-65
2021/12/24 02:36:11;;;;;;;12.50;6.87;;;;;;;-12.29;69.87;100319.64;1740141;81;21020;-65
2021/12/24 02:38:38;;;;;;;14.90;6.90;;;;;;;-12.28;69.82;100313.71;1774137;80;21825;-65
2021/12/24 02:41:06;;;;;;;10.95;6.40;;;;;;;-12.28;69.84;100301.41;1774542;81;20947;-65
2021/12/24 02:43:32;;;;;;;11.68;6.75;;;;;;;-12.28;69.95;100293.34;1773578;80;21039;-66
2021/12/24 02:46:07;;;;;;;12.18;7.22;;;;;;;-12.22;69.97;100293.84;1772855;81;21087;-65
2021/12/24 02:53:59;;;;;;;13.13;7.42;;;;;;;-12.17;69.87;100271.83;1739694;81;21007;-66
2021/12/24 02:56:32;;;;;;;13.35;7.00;;;;;;;-12.17;69.83;100273.95;1762779;81;21102;-66
2021/12/24 02:59:01;;;;;;;13.15;7.20;;;;;;;-12.17;69.79;100268.86;1752495;81;29345;-65
2021/12/24 03:01:32;;;;;;;13.38;6.47;;;;;;;-12.17;69.80;100268.01;1766183;81;20960;-66
2021/12/24 03:03:59;;;;;;;13.60;7.03;;;;;;;-12.17;69.77;100259.09;1764581;81;22465;-66
2021/12/24 03:06:28;;;;;;;11.48;6.90;;;;;;;-12.16;69.76;100253.16;1793135;80;20944;-66
2021/12/24 03:08:55;;;;;;;11.83;7.33;;;;;;;-12.15;69.74;100256.17;1791713;78;20988;-65
2021/12/24 03:11:22;;;;;;;13.78;7.92;;;;;;;-12.15;69.76;100249.39;1762195;81;20987;-66
2021/12/24 03:13:50;;;;;;;14.35;8.38;;;;;;;-12.13;69.70;100241.77;1776172;79;21482;-64
2021/12/24 03:16:16;;;;;;;13.35;7.55;;;;;;;-12.11;69.72;100232.44;1786026;80;21776;-64
2021/12/24 03:18:45;;;;;;;16.00;7.67;;;;;;;-12.10;69.67;100233.30;1786180;80;21377;-65
2021/12/24 03:21:20;;;;;;;15.75;7.35;;;;;;;-12.09;69.72;100230.76;1769166;80;21007;-65
2021/12/24 03:23:44;;;;;;;14.30;7.40;;;;;;;-12.05;69.79;100226.56;1757587;81;21518;-64
2021/12/24 03:26:13;;;;;;;12.53;7.17;;;;;;;-12.02;69.83;100221.08;1766594;78;21031;-65
2021/12/24 03:28:41;;;;;;;11.85;6.35;;;;;;;-11.97;69.82;100224.92;1793476;80;21804;-65
2021/12/24 03:31:08;;;;;;;13.98;7.67;;;;;;;-11.93;69.87;100227.52;1793351;80;20949;-64
2021/12/24 03:33:36;;;;;;;15.20;7.67;;;;;;;-11.89;69.82;100206.75;1812214;78;20973;-66
2021/12/24 03:36:07;;;;;;;15.60;8.38;;;;;;;-11.85;69.85;100219.53;1826005;78;20965;-65
2021/12/24 03:38:35;;;;;;;11.20;7.10;;;;;;;-11.80;69.82;100213.61;1812564;78;20975;-65
2021/12/24 03:41:03;;;;;;;12.85;6.90;;;;;;;-11.77;69.77;100205.95;1758950;81;21812;-65
2021/12/24 03:43:32;;;;;;;14.70;7.22;;;;;;;-11.76;69.68;100199.63;1781030;78;20976;-65
2021/12/24 03:46:03;;;;;;;14.20;7.85;;;;;;;-11.75;69.61;100195.38;1826166;78;21509;-65
2021/12/24 03:48:50;;;;;;;13.88;8.00;;;;;;;-11.76;69.57;100181.80;1783526;78;21003;-64
2021/12/24 03:56:40;;;;;;;18.30;9.95;;;;;;;-11.78;69.50;100163.50;1741471;81;21091;-65
2021/12/24 03:59:09;;;;;;;16.35;9.60;;;;;;;-11.77;69.49;100144.82;1762254;81;21027;-65
2021/12/24 04:01:44;;;;;;;16.57;9.80;;;;;;;-11.74;69.47;100136.80;1768934;78;20952;-65
2021/12/24 04:04:18;;;;;;;27.40;13.65;;;;;;;-11.72;69.45;100135.11;1820230;78;21584;-65
2021/12/24 04:06:55;;;;;;;34.25;15.72;;;;;;;-11.71;69.43;100133.41;1756088;78;21839;-66
2021/12/24 04:09:40;;;;;;;26.77;13.72;;;;;;;-11.69;69.41;100129.17;1759164;80;21360;-65
2021/12/24 04:12:22;;;;;;;25.68;13.35;;;;;;;-11.68;69.41;100116.44;1694347;84;21017;-65
2021/12/24 04:14:52;;;;;;;33.38;18.10;;;;;;;-11.65;69.45;100121.58;1772446;79;20987;-65
2021/12/24 04:17:22;;;;;;;29.92;16.52;;;;;;;-11.62;69.48;100112.66;1803706;78;20960;-65
2021/12/24 04:25:19;;;;;;;26.55;14.38;;;;;;;-11.50;69.63;100130.98;1826843;78;20984;-64
2021/12/24 04:27:46;;;;;;;23.02;12.50;;;;;;;-11.43;69.69;100124.23;1826661;78;20952;-65
2021/12/24 04:30:22;;;;;;;20.20;11.38;;;;;;;-11.38;69.72;100123.85;1822353;78;21004;-65
2021/12/24 04:33:05;;;;;;;23.70;11.95;;;;;;;-11.33;69.71;100125.56;1808220;79;20989;-66
2021/12/24 04:35:38;;;;;;;23.22;12.00;;;;;;;-11.29;69.71;100120.05;1821608;78;21481;-66
2021/12/24 04:51:53;;;;;;;24.72;12.00;;;;;;;-11.00;69.71;100073.86;1820698;78;21015;-65
2021/12/24 05:05:36;;;;;;;26.35;14.03;;;;;;;-10.76;69.55;100053.92;1800396;78;20992;-67
2021/12/24 05:10:21;;;;;;;33.23;21.57;;;;;;;-10.64;69.47;100039.47;1826350;78;21348;-64
2021/12/24 05:12:48;;;;;;;25.50;13.03;;;;;;;-10.60;69.39;100028.00;1826524;78;21866;-64
2021/12/24 05:15:16;;;;;;;16.93;10.08;;;;;;;-10.52;69.40;100021.60;1821447;78;20991;-65
2021/12/24 05:23:14;;;;;;;19.30;10.80;;;;;;;-10.38;69.36;100010.98;1824269;78;20941;-65
2021/12/24 05:25:45;;;;;;;21.57;11.85;;;;;;;-10.33;69.40;100002.87;1822640;78;21822;-66
2021/12/24 05:28:13;;;;;;;20.43;10.35;;;;;;;-10.30;69.41;99994.38;1756849;81;21006;-67
2021/12/24 05:30:41;;;;;;;19.17;10.10;;;;;;;-10.27;69.41;99987.56;1740604;81;21044;-68
2021/12/24 05:33:12;;;;;;;19.42;10.93;;;;;;;-10.24;69.40;99988.81;1750710;80;21070;-66
2021/12/24 05:35:36;;;;;;;18.65;9.30;;;;;;;-10.21;69.43;99988.80;1783141;80;20957;-65
2021/12/24 05:38:03;;;;;;;16.25;9.80;;;;;;;-10.17;69.48;99981.55;1761337;80;21829;-65
2021/12/24 05:40:30;;;;;;;18.12;8.58;;;;;;;-10.13;69.47;99972.20;1755011;81;21068;-64
2021/12/24 05:42:56;;;;;;;17.82;10.25;;;;;;;-10.08;69.48;99965.78;1786526;80;21051;-68
2021/12/24 05:45:24;;;;;;;18.87;10.20;;;;;;;-10.05;69.44;99954.27;1790718;80;20991;-65
2021/12/24 05:47:55;;;;;;;23.15;12.75;;;;;;;-10.03;69.45;99959.82;1754179;80;20959;-66
2021/12/24 05:50:22;;;;;;;23.38;12.37;;;;;;;-9.99;69.48;99965.76;1748245;82;21820;-65
2021/12/24 05:52:55;;;;;;;27.07;13.68;;;;;;;-9.94;69.49;99967.86;1744700;81;20948;-65
2021/12/24 05:55:35;;;;;;;40.05;21.77;;;;;;;-9.90;69.51;99970.84;1758650;81;20968;-66
2021/12/24 05:58:07;;;;;;;34.05;16.73;;;;;;;-9.86;69.55;99969.53;1749472;81;20948;-67
2021/12/24 06:00:36;;;;;;;47.33;21.60;;;;;;;-9.83;69.59;99970.83;1734151;81;20933;-66
2021/12/24 06:03:03;;;;;;;48.40;21.52;;;;;;;-9.77;69.62;99966.53;1761130;81;21834;-66
2021/12/24 06:05:30;;;;;;;47.67;20.40;;;;;;;-9.74;69.70;99971.22;1730249;81;21051;-66
2021/12/24 06:07:56;;;;;;;50.08;23.55;;;;;;;-9.70;69.70;99966.50;1695358;84;21008;-66
2021/12/24 06:10:25;;;;;;;60.95;23.73;;;;;;;-9.66;69.71;99961.79;1741155;82;21436;-66
2021/12/24 06:12:51;;;;;;;50.12;22.82;;;;;;;-9.63;69.67;99959.67;1741016;81;21068;-66
2021/12/24 06:15:23;;;;;;;44.13;20.43;;;;;;;-9.61;69.62;99960.52;1740990;82;21779;-66
2021/12/24 06:17:48;;;;;;;33.70;16.80;;;;;;;-9.60;69.58;99957.09;1739634;82;20965;-66
2021/12/24 06:20:14;;;;;;;28.95;14.63;;;;;;;-9.58;69.52;99945.15;1738408;82;21045;-66
2021/12/24 06:22:41;;;;;;;29.57;14.18;;;;;;;-9.57;69.49;99941.73;1727688;82;21052;-65
2021/12/24 06:25:08;;;;;;;27.20;14.13;;;;;;;-9.56;69.45;99933.20;1711218;84;21026;-65
2021/12/24 06:27:35;;;;;;;28.32;13.48;;;;;;;-9.56;69.39;99925.53;1717791;82;22647;-66
2021/12/24 06:30:03;;;;;;;27.10;14.63;;;;;;;-9.55;69.36;99924.70;1740723;81;20999;-66
2021/12/24 06:32:30;;;;;;;29.95;15.65;;;;;;;-9.53;69.34;99926.81;1735988;82;21000;-64
2021/12/24 06:34:56;;;;;;;39.55;17.62;;;;;;;-9.52;69.31;99918.29;1740341;82;21486;-65
2021/12/24 06:37:22;;;;;;;41.58;18.67;;;;;;;-9.51;69.29;99911.03;1740729;82;20952;-66
2021/12/24 06:39:49;;;;;;;32.55;16.17;;;;;;;-9.47;69.27;99910.58;1740778;82;21872;-65
2021/12/24 06:42:16;;;;;;;31.57;16.02;;;;;;;-9.46;69.25;99914.40;1711610;82;20964;-66
2021/12/24 06:44:42;;;;;;;29.40;15.48;;;;;;;-9.44;69.22;99910.15;1743796;81;21059;-66
2021/12/24 06:47:08;;;;;;;24.27;12.60;;;;;;;-9.41;69.16;99913.11;1770318;81;21569;-66
2021/12/24 06:49:35;;;;;;;27.15;12.60;;;;;;;-9.40;69.20;99906.70;1740022;82;20991;-67
2021/12/24 06:52:02;;;;;;;27.30;12.60;;;;;;;-9.38;69.13;99910.09;1738391;82;21811;-67
2021/12/24 06:54:31;;;;;;;25.08;12.53;;;;;;;-9.36;69.18;99904.56;1741186;82;21493;-67
2021/12/24 06:56:58;;;;;;;29.55;13.93;;;;;;;-9.33;69.18;99889.19;1741181;82;21426;-68
2021/12/24 06:59:26;;;;;;;30.52;15.48;;;;;;;-9.29;69.17;99886.17;1741128;82;20979;-66
2021/12/24 07:01:52;;;;;;;40.95;19.05;;;;;;;-9.25;69.19;99868.69;1741116;82;21493;-66
2021/12/24 07:04:19;;;;;;;43.15;21.73;;;;;;;-9.20;69.22;99860.96;1739997;82;22650;-67
2021/12/24 07:06:45;;;;;;;44.13;21.95;;;;;;;-9.16;69.27;99860.94;1743523;81;20996;-67
2021/12/24 07:09:14;;;;;;;55.28;24.67;;;;;;;-9.10;69.29;99860.03;1745840;81;21491;-67
2021/12/24 07:11:41;;;;;;;59.13;25.55;;;;;;;-9.04;69.29;99856.15;1771966;80;21050;-67
2021/12/24 07:14:08;;;;;;;54.73;23.55;;;;;;;-8.99;69.24;99850.55;1765477;80;20971;-66
2021/12/24 07:16:35;;;;;;;45.08;21.93;;;;;;;-8.95;69.22;99849.24;1771875;81;22462;-67
2021/12/24 07:19:01;;;;;;;47.50;22.90;;;;;;;-8.91;69.18;99841.09;1758713;81;21499;-66
2021/12/24 07:21:29;;;;;;;39.88;20.43;;;;;;;-8.85;69.18;99837.22;1760427;81;21027;-68
2021/12/24 07:23:55;;;;;;;37.85;19.17;;;;;;;-8.80;69.01;99825.64;1745261;80;21066;-66
2021/12/24 07:26:22;;;;;;;42.23;23.75;;;;;;;-8.77;69.02;99823.91;1781946;80;21063;-68
2021/12/24 07:28:49;;;;;;;32.30;15.50;;;;;;;-8.73;68.92;99819.17;1760186;81;21815;-67
2021/12/24 07:31:15;;;;;;;29.25;15.50;;;;;;;-8.70;68.86;99822.97;1784430;80;21105;-66
2021/12/24 07:33:42;;;;;;;29.57;15.30;;;;;;;-8.69;68.70;99817.41;1755733;81;20996;-65
2021/12/24 07:36:09;;;;;;;30.48;19.12;;;;;;;-8.69;68.66;99803.33;1763749;80;21047;-65
2021/12/24 07:38:36;;;;;;;24.52;13.80;;;;;;;-8.67;68.63;99799.92;1764723;80;21148;-66
2021/12/24 07:41:04;;;;;;;24.18;12.63;;;;;;;-8.66;68.59;99788.81;1762502;80;22461;-68
2021/12/24 07:43:31;;;;;;;42.00;20.75;;;;;;;-8.63;68.59;99783.23;1765634;80;20983;-66
2021/12/24 07:45:59;;;;;;;39.27;18.35;;;;;;;-8.60;68.58;99771.23;1762076;80;21636;-67
2021/12/24 07:48:30;;;;;;;33.65;16.15;;;;;;;-8.56;68.66;99767.79;1795067;78;21357;-67
2021/12/24 07:53:24;;;;;;;28.92;14.85;;;;;;;-8.46;68.74;99743.77;1761801;80;21845;-66
2021/12/24 07:55:53;;;;;;;27.93;13.45;;;;;;;-8.41;68.74;99738.58;1760857;80;20988;-68
2021/12/24 07:58:20;;;;;;;24.82;12.63;;;;;;;-8.34;68.78;99731.67;1764820;80;21047;-66
2021/12/24 08:00:47;;;;;;;21.80;11.08;;;;;;;-8.27;68.80;99721.30;1766733;80;21027;-68
2021/12/24 08:03:14;;;;;;;22.15;10.18;;;;;;;-8.20;68.84;99716.50;1766247;80;21433;-67
2021/12/24 08:05:41;;;;;;;17.87;9.43;;;;;;;-8.13;68.76;99704.44;1761549;80;21843;-69
2021/12/24 08:08:09;;;;;;;16.80;8.55;;;;;;;-8.08;68.75;99692.41;1754974;80;20959;-68
2021/12/24 08:10:37;;;;;;;19.98;9.18;;;;;;;-8.05;68.77;99690.23;1760415;81;21012;-66
2021/12/24 08:13:05;;;;;;;15.38;8.25;;;;;;;-8.01;68.85;99683.74;1752442;81;20991;-67
2021/12/24 08:15:32;;;;;;;14.63;8.75;;;;;;;-7.97;68.94;99697.38;1755141;81;21023;-67
2021/12/24 08:17:59;;;;;;;15.48;9.03;;;;;;;-7.94;69.14;99688.35;1758967;81;21800;-66
2021/12/24 08:20:26;;;;;;;14.23;8.53;;;;;;;-7.92;69.39;99692.58;1748082;81;20948;-66
2021/12/24 08:22:54;;;;;;;15.40;10.08;;;;;;;-7.90;69.53;99684.89;1753298;81;21063;-67
2021/12/24 08:25:22;;;;;;;18.62;10.90;;;;;;;-7.89;69.80;99668.64;1751367;81;21460;-66
2021/12/24 08:27:49;;;;;;;20.80;11.65;;;;;;;-7.83;70.09;99662.11;1769382;80;20958;-67
2021/12/24 08:30:15;;;;;;;20.05;11.30;;;;;;;-7.77;70.28;99658.17;1750509;81;24063;-67
2021/12/24 08:32:43;;;;;;;25.25;12.95;;;;;;;-7.75;70.44;99652.58;1741545;80;20988;-67
2021/12/24 08:35:13;;;;;;;21.10;11.55;;;;;;;-7.73;70.51;99644.42;1743341;81;21048;-65
2021/12/24 08:37:39;;;;;;;24.50;13.40;;;;;;;-7.69;70.61;99642.67;1739831;81;21094;-66
2021/12/24 08:40:08;;;;;;;23.05;12.00;;;;;;;-7.66;70.72;99629.35;1739105;81;21157;-67
2021/12/24 08:42:36;;;;;;;21.57;12.60;;;;;;;-7.62;70.80;99619.91;1754372;81;20941;-66
2021/12/24 08:45:04;;;;;;;24.27;13.58;;;;;;;-7.61;70.91;99612.18;1747854;81;21001;-65
2021/12/24 08:47:31;;;;;;;28.47;15.43;;;;;;;-7.61;70.98;99604.48;1743798;80;21021;-66
2021/12/24 08:49:58;;;;;;;35.20;15.45;;;;;;;-7.59;71.02;99604.02;1740170;81;20966;-66
2021/12/24 08:52:24;;;;;;;29.65;15.60;;;;;;;-7.56;71.13;99598.83;1749672;81;20958;-66
2021/12/24 08:54:50;;;;;;;32.25;18.05;;;;;;;-7.43;71.42;99575.50;1710440;81;21906;-65
2021/12/24 08:57:17;;;;;;;37.55;18.82;;;;;;;-7.43;71.42;99575.50;1749355;81;20960;-66
2021/12/24 08:59:43;;;;;;;36.35;17.62;;;;;;;-7.38;71.28;99564.29;1732941;81;21057;-66
2021/12/24 09:02:10;;;;;;;29.07;15.80;;;;;;;-7.28;71.38;99542.70;1746368;81;21066;-64
2021/12/24 09:04:38;;;;;;;30.20;16.52;;;;;;;-7.28;71.38;99542.70;1786035;80;21395;-65
2021/12/24 09:07:04;;;;;;;28.47;15.93;;;;;;;-7.23;71.21;99539.62;1788804;79;21984;-65
2021/12/24 09:09:32;;;;;;;25.85;14.65;;;;;;;-7.23;71.23;99524.23;1791614;80;20968;-66
2021/12/24 09:11:59;;;;;;;32.75;15.78;;;;;;;-7.21;71.27;99515.21;1777908;80;20960;-66
2021/12/24 09:14:26;;;;;;;31.25;15.00;;;;;;;-7.17;71.39;99505.72;1781810;80;21089;-67
2021/12/24 09:16:55;;;;;;;28.95;14.65;;;;;;;-7.11;71.47;99500.46;1778000;80;20999;-66
2021/12/24 09:19:26;;;;;;;26.05;13.95;;;;;;;-7.07;71.54;99490.52;1777718;80;21806;-66
2021/12/24 09:21:51;;;;;;;26.02;13.25;;;;;;;-7.03;71.54;99479.33;1790182;80;21099;-66
2021/12/24 09:24:20;;;;;;;23.27;12.58;;;;;;;-6.99;71.70;99482.22;1774479;80;21554;-66
2021/12/24 09:26:46;;;;;;;22.45;13.58;;;;;;;-6.95;71.93;99475.71;1776072;80;21035;-66
2021/12/24 09:29:13;;;;;;;27.02;13.08;;;;;;;-6.91;71.85;99471.34;1782563;80;21097;-66
2021/12/24 09:31:39;;;;;;;25.15;13.25;;;;;;;-6.87;71.68;99468.25;1784727;78;21825;-64
2021/12/24 09:34:06;;;;;;;23.45;14.68;;;;;;;-6.87;71.65;99459.27;1772341;80;21616;-66
2021/12/24 09:36:33;;;;;;;23.77;13.05;;;;;;;-6.85;71.67;99451.08;1757784;80;21012;-66
2021/12/24 09:39:02;;;;;;;29.20;15.18;;;;;;;-6.86;71.58;99433.99;1754021;81;21043;-67
2021/12/24 09:41:29;;;;;;;24.00;13.93;;;;;;;-6.82;71.60;99436.47;1762305;80;21105;-66
2021/12/24 09:43:59;;;;;;;24.82;14.50;;;;;;;-6.77;71.67;99438.47;1763804;80;23017;-66
2021/12/24 09:46:27;;;;;;;25.70;14.87;;;;;;;-6.74;71.62;99421.73;1764657;81;21012;-66
2021/12/24 09:48:54;;;;;;;27.62;15.72;;;;;;;-6.71;71.67;99423.37;1760703;81;22060;-66
2021/12/24 09:51:24;;;;;;;26.50;14.25;;;;;;;-6.68;71.84;99416.86;1758140;81;21015;-67
2021/12/24 09:53:51;;;;;;;34.55;15.43;;;;;;;-6.63;71.61;99412.47;1756138;81;21066;-68
2021/12/24 09:56:17;;;;;;;32.78;17.37;;;;;;;-6.60;71.55;99396.97;1765236;81;21812;-69
2021/12/24 09:58:43;;;;;;;38.17;19.35;;;;;;;-6.57;71.60;99390.47;1758393;80;21058;-66
2021/12/24 10:01:34;;;;;;;43.30;20.55;;;;;;;-6.54;71.91;99394.26;1730137;81;21102;-66
2021/12/24 10:04:10;;;;;;;37.73;18.25;;;;;;;-6.46;71.77;99388.48;1767213;80;21082;-65
2021/12/24 10:06:40;;;;;;;43.10;18.05;;;;;;;-6.46;71.77;99388.48;1792322;79;21042;-66
2021/12/24 10:09:11;;;;;;;27.70;15.30;;;;;;;-6.38;71.95;99382.68;1765713;80;21818;-66
2021/12/24 10:11:50;;;;;;;31.45;15.35;;;;;;;-6.31;71.82;99367.95;1775878;79;22498;-67
2021/12/24 10:14:21;;;;;;;27.17;15.00;;;;;;;-6.27;71.47;99364.84;1779981;79;21004;-65
2021/12/24 10:16:51;;;;;;;37.50;17.42;;;;;;;-6.23;71.47;99348.03;1789643;80;21335;-67
2021/12/24 10:19:19;;;;;;;35.40;17.32;;;;;;;-6.17;71.28;99341.89;1773925;80;20948;-67
2021/12/24 10:21:46;;;;;;;42.20;19.70;;;;;;;-6.15;71.30;99340.11;1759732;81;21870;-66
2021/12/24 10:24:17;;;;;;;43.17;20.30;;;;;;;-6.11;71.33;99332.26;1739165;81;21067;-66
2021/12/24 10:26:48;;;;;;;36.00;19.77;;;;;;;-6.05;71.32;99320.97;1770923;81;20960;-65
2021/12/24 10:29:19;;;;;;;50.15;22.20;;;;;;;-6.04;71.35;99325.22;1765269;81;20967;-65
2021/12/24 10:31:54;;;;;;;38.23;17.48;;;;;;;-6.02;71.46;99309.75;1770524;81;20944;-65
2021/12/24 10:34:30;;;;;;;38.60;18.52;;;;;;;-5.99;71.45;99310.94;1746403;80;21930;-65
2021/12/24 10:37:11;;;;;;;37.73;19.75;;;;;;;-6.02;72.02;99302.04;1740139;81;22111;-64
2021/12/24 10:39:52;;;;;;;40.33;19.67;;;;;;;-5.99;72.53;99292.94;1731378;81;20956;-65
2021/12/24 10:42:29;;;;;;;39.85;21.05;;;;;;;-5.96;72.83;99286.00;1740160;82;20968;-66
2021/12/24 10:44:57;;;;;;;31.45;17.32;;;;;;;-5.92;72.88;99290.15;1752902;81;20964;-66
2021/12/24 10:47:35;;;;;;;27.02;14.00;;;;;;;-5.89;72.91;99276.31;1771444;81;22479;-65
2021/12/24 10:50:26;;;;;;;25.60;14.53;;;;;;;-5.87;73.12;99269.42;1759729;81;20979;-65
2021/12/24 10:55:23;;;;;;;35.33;17.30;;;;;;;-5.88;73.16;99269.03;1765559;80;21082;-65
2021/12/24 10:57:51;;;;;;;39.20;18.85;;;;;;;-5.87;73.25;99253.55;1750912;81;21106;-65
2021/12/24 11:00:33;;;;;;;33.45;18.70;;;;;;;-5.86;73.32;99250.09;1762596;81;21829;-66
2021/12/24 11:03:06;;;;;;;39.15;18.70;;;;;;;-5.84;73.09;99246.18;1775364;79;21083;-65
2021/12/24 11:05:38;;;;;;;28.10;15.65;;;;;;;-5.81;73.19;99229.36;1758211;81;20985;-65
2021/12/24 11:08:16;;;;;;;33.25;19.17;;;;;;;-5.78;73.05;99222.41;1760090;80;21024;-65
2021/12/24 11:10:50;;;;;;;39.67;20.62;;;;;;;-5.74;73.02;99214.59;1788635;80;21000;-66
2021/12/24 11:13:19;;;;;;;47.17;22.40;;;;;;;-5.70;73.07;99206.71;1762094;80;21825;-65
2021/12/24 11:15:52;;;;;;;47.43;22.37;;;;;;;-5.64;73.08;99205.24;1774795;80;20953;-66
2021/12/24 11:18:25;;;;;;;43.73;20.48;;;;;;;-5.59;73.00;99203.82;1774296;80;20996;-66
2021/12/24 11:21:09;;;;;;;;;;;;;;;-5.56;72.80;99194.70;1774285;81;21047;-67
2021/12/24 11:23:40;;;;;;;39.65;20.05;;;;;;;-5.56;72.65;99203.27;1755144;81;20204;-67
2021/12/24 11:26:12;;;;;;;31.97;16.45;;;;;;;-5.54;72.54;99194.20;1740926;81;22495;-67
2021/12/24 11:28:39;;;;;;;29.87;15.72;;;;;;;-5.53;72.38;99184.31;1768141;81;21320;-66
2021/12/24 11:31:09;;;;;;;28.10;15.72;;;;;;;-5.54;72.16;99184.75;1767984;81;21134;-66
2021/12/24 11:33:37;;;;;;;26.55;15.32;;;;;;;-5.52;72.05;99171.84;1760413;81;20968;-66
2021/12/24 11:36:06;;;;;;;26.25;13.80;;;;;;;-5.50;71.75;99175.19;1740869;81;21441;-66
2021/12/24 11:38:39;;;;;;;30.52;15.78;;;;;;;-5.43;71.88;99170.24;1736492;81;21816;-65
2021/12/24 11:41:10;;;;;;;39.58;19.00;;;;;;;-5.40;71.63;99155.14;1759379;81;21423;-65
2021/12/24 11:43:39;;;;;;;39.42;20.00;;;;;;;-5.37;71.49;99160.20;1766931;80;21031;-64
2021/12/24 11:46:07;;;;;;;31.25;16.00;;;;;;;-5.34;71.45;99166.07;1770537;81;20964;-67
2021/12/24 11:48:34;;;;;;;30.50;16.73;;;;;;;-5.34;71.25;99154.94;1768862;81;20984;-66
2021/12/24 11:51:19;;;;;;;26.70;15.70;;;;;;;-5.33;71.30;99153.59;1761871;81;21800;-66
2021/12/24 11:53:46;;;;;;;26.95;14.68;;;;;;;-5.34;71.13;99145.94;1782895;80;20952;-65
2021/12/24 11:56:15;;;;;;;28.80;16.85;;;;;;;-5.34;71.02;99141.63;1782394;80;21004;-65
2021/12/24 11:58:51;;;;;;;30.43;16.17;;;;;;;-5.35;71.07;99133.52;1762404;81;21035;-65
2021/12/24 12:01:19;;;;;;;36.58;17.80;;;;;;;-5.35;71.04;99128.37;1752310;81;21067;-66
2021/12/24 12:03:53;;;;;;;28.40;15.55;;;;;;;-5.32;71.08;99130.83;1740686;81;21863;-66
2021/12/24 12:06:29;;;;;;;28.38;14.78;;;;;;;-5.29;70.91;99132.03;1769457;81;21058;-66
2021/12/24 12:08:57;;;;;;;26.57;14.23;;;;;;;-5.27;70.84;99126.82;1769018;81;21106;-65
2021/12/24 12:11:35;;;;;;;30.50;14.43;;;;;;;-5.26;70.74;99116.91;1760632;81;21476;-65
2021/12/24 12:14:21;;;;;;;28.23;15.13;;;;;;;-5.26;70.73;99116.91;1752720;81;21022;-64
2021/12/24 12:17:06;;;;;;;28.32;13.83;;;;;;;-5.26;70.77;99115.18;1759408;81;21874;-66
2021/12/24 12:25:03;;;;;;;21.93;11.90;;;;;;;-5.24;70.59;99097.94;1755641;81;21516;-66
2021/12/24 12:27:45;;;;;;;24.20;12.90;;;;;;;-5.22;70.64;99083.73;1754681;79;21015;-65
2021/12/24 12:30:27;;;;;;;22.82;12.40;;;;;;;-5.20;70.62;99075.08;1757258;79;21912;-66
2021/12/24 12:33:12;;;;;;;24.85;13.22;;;;;;;-5.18;70.56;99067.30;1741855;81;20947;-66
2021/12/24 12:35:42;;;;;;;;;;;;;;;-5.19;70.49;99063.05;1765141;81;21561;-66
2021/12/24 12:38:32;;;;;;;35.15;17.35;;;;;;;-5.19;70.54;99070.77;1770166;81;20222;-66
2021/12/24 12:41:35;;;;;;;31.68;15.48;;;;;;;-5.18;70.60;99068.58;1766098;81;20952;-66
2021/12/24 12:44:10;;;;;;;24.07;13.88;;;;;;;-5.16;70.60;99055.66;1768352;81;22697;-68
2021/12/24 12:46:41;;;;;;;29.67;15.93;;;;;;;-5.17;70.65;99048.83;1750174;79;20931;-65
2021/12/24 12:49:18;;;;;;;35.15;16.12;;;;;;;-5.16;70.68;99049.22;1769401;81;20944;-65
2021/12/24 12:51:55;;;;;;;26.33;14.50;;;;;;;-5.14;70.73;99041.82;1730309;82;20987;-66
2021/12/24 12:54:35;;;;;;;31.25;14.83;;;;;;;-5.12;70.81;99037.90;1778214;80;21102;-65
2021/12/24 12:57:32;;;;;;;32.20;16.20;;;;;;;-5.08;70.81;99030.47;1774726;80;21932;-65
2021/12/24 13:00:19;;;;;;;32.67;17.02;;;;;;;-5.06;70.79;99026.94;1785596;80;20933;-67
2021/12/24 13:03:10;;;;;;;39.65;25.43;;;;;;;-5.04;70.78;99026.42;1746246;81;21011;-67
2021/12/24 13:05:31;;;;;;;;;;;;;;;-5.03;70.75;99016.52;1770463;80;20940;-66
2021/12/24 13:08:00;;;;;;;20.90;12.45;;;;;;;-5.02;70.78;99021.20;1754996;80;20134;-67
2021/12/24 13:10:27;;;;;;;25.00;15.25;;;;;;;-5.02;70.83;99022.08;1752525;80;22474;-67
2021/12/24 13:13:04;;;;;;;25.25;15.18;;;;;;;-4.98;70.82;99016.35;1751098;80;21640;-66
2021/12/24 13:15:33;;;;;;;25.32;14.15;;;;;;;-4.98;70.86;99007.34;1753619;81;21051;-67